首页
METAR-TAF:

METAR-TAF

机场 :

Cut Bank, 蒙大拿州, 美国

纬度: 48-36-30N, 经度: 112-22-34W, 海拔: 1175米

当前天气观测

该预报发布于59分钟前的15:56 UTC
风速12节,风向西转西南
温度 17°C
湿度 29%
气压 1021 hPa
能見度: 16.1公里
天空无云

METAR: KCTB 021556Z AUTO 24012KT 10SM CLR 17/M01 A3014 RMK AO2 SLP193 T01671006

时间: 10:55 (16:55 UTC)

预报

该预报发布于5小时和35分钟前的11:20 UTC
预报有效从02日的 12点(UTC)到 03日的 12点(UTC)
风速12节,风向西转西南
能見度: 10公里
天空无云
从 02日的 1300点(UTC)
风速13节,风向西,有时为23节阵风
能見度: 10公里
天空无云
从 02日的 1800点(UTC)
风速15节,风向西转西南,有时为24节阵风
能見度: 10公里
天空无云

TAF: KCTB 021120Z 0212/0312 25012KT P6SM SKC FM021300 26013G23KT P6SM SKC FM021800 24015G24KT P6SM SKC

超过4000个机场的气象观测和天气预报(METAR&TAF报告)。

可查询的气象台以黄色和红色小点在地图上表示。

将鼠标移到小点上方,可查看气象台名称。

然后点击查看天气观测和预报。

如需切换地图:点击带黑十字的绿色按钮放大地图;点击带横线的绿色按钮缩小地图;或者点击绿色箭头查看邻近地区的地图。


METAR-TAF: